createdAt,value
2019-03-25T00:01:02.603Z,53.89
2019-03-25T00:03:34.604Z,54.49
2019-03-25T00:06:06.475Z,54.71
2019-03-25T00:08:38.686Z,54.65
2019-03-25T00:11:11.963Z,54.77
2019-03-25T00:13:43.937Z,54.27
2019-03-25T00:16:16.340Z,54.55
2019-03-25T00:18:48.226Z,54.62
2019-03-25T00:21:21.327Z,55.15
2019-03-25T00:23:53.484Z,55.11
2019-03-25T00:26:25.627Z,55.07
2019-03-25T00:28:57.631Z,55.01
2019-03-25T00:31:29.846Z,55.84
2019-03-25T00:34:01.841Z,55.75
2019-03-25T00:36:34.071Z,55.81
2019-03-25T00:39:07.225Z,56.55
2019-03-25T00:41:39.208Z,56.96
2019-03-25T00:44:11.332Z,57.23
2019-03-25T00:46:43.272Z,56.98
2019-03-25T00:49:15.073Z,57.38
2019-03-25T00:51:47.286Z,57.64
2019-03-25T00:54:19.059Z,57.45
2019-03-25T00:56:51.179Z,57.44
2019-03-25T00:59:23.211Z,57.34
2019-03-25T01:01:55.014Z,56.92
2019-03-25T01:04:26.766Z,57.87
2019-03-25T01:06:58.665Z,58.06
2019-03-25T01:09:30.453Z,56.85
2019-03-25T01:12:02.586Z,56.63
2019-03-25T01:14:34.597Z,57.04
2019-03-25T01:17:06.778Z,56.52
2019-03-25T01:19:38.612Z,57.45
2019-03-25T01:22:10.847Z,56.93
2019-03-25T01:24:42.656Z,56.31
2019-03-25T01:27:14.640Z,57.67
2019-03-25T01:29:46.780Z,57.34
2019-03-25T01:32:18.855Z,57.88
2019-03-25T01:34:50.735Z,58.17
2019-03-25T01:37:22.896Z,58.38
2019-03-25T01:39:55.008Z,58.99
2019-03-25T01:42:27.071Z,59.08
2019-03-25T01:44:59.243Z,58.75
2019-03-25T01:47:31.412Z,58.51
2019-03-25T01:50:03.580Z,58.52
2019-03-25T01:52:35.729Z,58.75
2019-03-25T01:55:13.348Z,59.30
2019-03-25T01:57:41.783Z,58.86
2019-03-25T02:00:14.242Z,59.12
2019-03-25T02:02:46.472Z,58.56
2019-03-25T02:05:18.468Z,59.01
2019-03-25T02:07:50.393Z,58.13
2019-03-25T02:10:22.302Z,58.11
2019-03-25T02:12:54.411Z,58.49
2019-03-25T02:15:26.555Z,58.12
2019-03-25T02:17:59.049Z,58.36
2019-03-25T02:20:31.218Z,58.00
2019-03-25T02:23:03.332Z,58.34
2019-03-25T02:25:35.579Z,58.81
2019-03-25T02:28:07.782Z,58.23
2019-03-25T02:30:39.830Z,58.43
2019-03-25T02:33:11.966Z,58.89
2019-03-25T02:35:44.154Z,58.79
2019-03-25T02:38:16.242Z,58.20
2019-03-25T02:40:48.284Z,58.01
2019-03-25T02:43:20.486Z,58.47
2019-03-25T02:45:52.842Z,58.42
2019-03-25T02:48:24.713Z,58.74
2019-03-25T02:50:56.729Z,58.91
2019-03-25T02:53:28.578Z,59.60
2019-03-25T02:56:00.421Z,60.43
2019-03-25T02:58:32.602Z,60.23
2019-03-25T03:01:04.868Z,61.31
2019-03-25T03:03:36.894Z,60.98
2019-03-25T03:06:08.844Z,60.46
2019-03-25T03:08:40.926Z,60.66
2019-03-25T03:11:12.898Z,61.09
2019-03-25T03:13:45.002Z,61.54
2019-03-25T03:16:16.957Z,61.48
2019-03-25T03:18:48.889Z,61.44
2019-03-25T03:21:20.891Z,61.37
2019-03-25T03:23:53.060Z,61.05
2019-03-25T03:26:25.268Z,60.96
2019-03-25T03:28:57.234Z,61.26
2019-03-25T03:31:29.181Z,60.97
2019-03-25T03:34:01.418Z,60.93
2019-03-25T03:36:33.505Z,60.95
2019-03-25T03:39:06.349Z,60.51
2019-03-25T03:41:38.510Z,61.31
2019-03-25T03:44:10.620Z,60.90
2019-03-25T03:46:42.782Z,60.60
2019-03-25T03:49:14.921Z,61.08
2019-03-25T03:51:47.409Z,61.40
2019-03-25T03:54:19.898Z,62.13
2019-03-25T03:56:53.897Z,62.15
2019-03-25T03:59:26.283Z,62.55
2019-03-25T04:01:58.211Z,63.02
2019-03-25T04:04:29.979Z,62.61
2019-03-25T04:07:01.975Z,62.22
2019-03-25T04:09:34.125Z,62.83
2019-03-25T04:12:06.164Z,62.95
2019-03-25T04:14:38.364Z,62.90
2019-03-25T04:17:10.295Z,62.27
2019-03-25T04:19:42.238Z,62.48
2019-03-25T04:22:14.071Z,63.11
2019-03-25T04:24:46.181Z,63.08
2019-03-25T04:27:18.412Z,62.98
2019-03-25T04:29:50.449Z,63.26
2019-03-25T04:32:22.710Z,63.73
2019-03-25T04:34:54.502Z,63.59
2019-03-25T04:37:26.609Z,63.58
2019-03-25T04:39:58.375Z,63.26
2019-03-25T04:42:30.448Z,64.11
2019-03-25T04:45:02.426Z,63.98
2019-03-25T04:47:34.314Z,63.43
2019-03-25T04:50:06.384Z,64.13
2019-03-25T04:52:38.504Z,65.20
2019-03-25T04:55:10.430Z,64.92
2019-03-25T04:57:42.453Z,64.52
2019-03-25T05:00:14.747Z,63.57
2019-03-25T05:02:46.609Z,63.52
2019-03-25T05:05:18.755Z,63.00
2019-03-25T05:07:50.781Z,62.57
2019-03-25T05:10:22.827Z,62.19
2019-03-25T05:12:54.975Z,63.15
2019-03-25T05:15:27.111Z,63.53
2019-03-25T05:17:59.198Z,62.84
2019-03-25T05:20:31.331Z,61.97
2019-03-25T05:23:03.548Z,61.29
2019-03-25T05:25:35.580Z,60.25
2019-03-25T05:28:07.438Z,58.79
2019-03-25T05:30:39.505Z,57.79
2019-03-25T05:33:11.622Z,56.43
2019-03-25T05:35:43.608Z,56.28
2019-03-25T05:38:15.871Z,55.58
2019-03-25T05:40:47.977Z,53.58
2019-03-25T05:43:21.262Z,54.20
2019-03-25T05:45:54.450Z,54.34
2019-03-25T05:48:26.248Z,53.27
2019-03-25T05:50:58.076Z,52.22
2019-03-25T05:53:30.305Z,49.33
2019-03-25T05:56:02.395Z,48.24
2019-03-25T05:58:34.579Z,47.33
2019-03-25T06:01:06.796Z,49.29
2019-03-25T06:03:38.951Z,48.05
2019-03-25T06:06:11.081Z,48.27
2019-03-25T06:08:43.214Z,48.96
2019-03-25T06:11:15.542Z,49.90
2019-03-25T06:13:47.732Z,50.83
2019-03-25T06:16:19.697Z,50.44
2019-03-25T06:18:51.681Z,48.89
2019-03-25T06:21:23.694Z,48.94
2019-03-25T06:23:55.868Z,44.98
2019-03-25T06:26:27.848Z,43.43
2019-03-25T06:28:59.990Z,43.00
2019-03-25T06:31:32.248Z,42.48
2019-03-25T06:34:04.354Z,43.68
2019-03-25T06:36:36.314Z,44.24
2019-03-25T06:39:08.404Z,44.60
2019-03-25T06:41:40.491Z,44.66
2019-03-25T06:44:12.471Z,44.44
2019-03-25T06:46:44.539Z,44.02
2019-03-25T06:49:16.665Z,43.84
2019-03-25T06:51:48.639Z,43.03
2019-03-25T06:54:20.621Z,44.15
2019-03-25T06:56:52.899Z,43.69
2019-03-25T06:59:24.832Z,44.07
2019-03-25T07:01:56.833Z,43.14
2019-03-25T07:04:28.987Z,43.52
2019-03-25T07:07:00.939Z,43.68
2019-03-25T07:09:32.824Z,43.91
2019-03-25T07:12:06.261Z,42.87
2019-03-25T07:14:38.286Z,42.48
2019-03-25T07:17:10.042Z,41.29
2019-03-25T07:19:41.694Z,40.68
2019-03-25T07:22:13.172Z,41.86
2019-03-25T07:24:44.901Z,40.54
2019-03-25T07:27:17.410Z,41.38
2019-03-25T07:29:49.195Z,40.89
2019-03-25T07:32:21.042Z,40.57
2019-03-25T07:34:52.653Z,40.97
2019-03-25T07:37:25.324Z,39.60
2019-03-25T07:39:57.242Z,39.53
2019-03-25T07:42:29.183Z,39.29
2019-03-25T07:45:01.045Z,38.79
2019-03-25T07:47:32.899Z,38.64
2019-03-25T07:50:04.935Z,38.14
2019-03-25T07:52:36.875Z,36.78
2019-03-25T07:55:08.739Z,37.38
2019-03-25T07:57:48.085Z,37.32
2019-03-25T08:00:16.278Z,36.23
2019-03-25T08:02:48.444Z,36.49
2019-03-25T08:05:20.461Z,36.07
2019-03-25T08:07:52.336Z,36.54
2019-03-25T08:10:37.637Z,36.54
2019-03-25T08:13:09.611Z,35.36
2019-03-25T08:15:41.356Z,35.12
2019-03-25T08:18:13.391Z,34.60
2019-03-25T08:20:45.324Z,34.88
2019-03-25T08:23:17.078Z,34.88
2019-03-25T08:25:48.882Z,37.05
2019-03-25T08:28:20.918Z,34.67
2019-03-25T08:30:52.703Z,34.67
2019-03-25T08:33:24.435Z,35.09
2019-03-25T08:35:56.098Z,35.50
2019-03-25T08:38:27.582Z,34.73
2019-03-25T08:40:59.356Z,34.73
2019-03-25T08:43:31.241Z,33.57
2019-03-25T08:46:03.006Z,33.57
2019-03-25T08:48:34.764Z,33.89
2019-03-25T08:51:06.577Z,32.71
2019-03-25T08:53:38.240Z,33.95
2019-03-25T08:56:10.183Z,33.95
2019-03-25T08:58:42.014Z,32.01
2019-03-25T09:01:13.803Z,32.01
2019-03-25T09:03:45.829Z,33.49
2019-03-25T09:06:17.764Z,32.61
2019-03-25T09:08:49.283Z,31.17
2019-03-25T09:11:21.426Z,31.78
2019-03-25T09:13:53.285Z,32.14
2019-03-25T09:16:25.075Z,30.82
2019-03-25T09:18:56.623Z,30.88
2019-03-25T09:21:28.439Z,29.54
2019-03-25T09:24:00.438Z,30.00
2019-03-25T09:26:32.373Z,30.46
2019-03-25T09:29:04.232Z,31.44
2019-03-25T09:31:37.121Z,31.71
2019-03-25T09:34:08.790Z,31.22
2019-03-25T09:36:40.333Z,31.30
2019-03-25T09:39:11.989Z,31.68
2019-03-25T09:41:43.668Z,29.43
2019-03-25T09:44:16.542Z,29.45
2019-03-25T09:46:48.487Z,28.72
2019-03-25T09:49:20.467Z,28.26
2019-03-25T09:51:53.013Z,29.41
2019-03-25T09:54:24.990Z,30.19
2019-03-25T09:56:57.231Z,29.12
2019-03-25T09:59:29.016Z,28.74
2019-03-25T10:02:00.944Z,29.83
2019-03-25T10:04:32.796Z,29.97
2019-03-25T10:07:04.751Z,29.95
2019-03-25T10:09:36.546Z,28.88
2019-03-25T10:12:08.585Z,29.26
2019-03-25T10:14:40.294Z,28.50
2019-03-25T10:17:12.233Z,28.17
2019-03-25T10:19:44.238Z,28.52
2019-03-25T10:22:16.187Z,28.07
2019-03-25T10:24:48.085Z,28.92
2019-03-25T10:27:20.012Z,27.79
2019-03-25T10:29:51.841Z,28.78
2019-03-25T10:32:23.513Z,28.77
2019-03-25T10:34:55.413Z,27.91
2019-03-25T10:37:27.376Z,27.21
2019-03-25T10:39:59.002Z,27.85
2019-03-25T10:42:30.899Z,27.58
2019-03-25T10:45:02.747Z,26.39
2019-03-25T10:47:34.803Z,26.74
2019-03-25T10:50:08.521Z,26.40
2019-03-25T10:52:40.392Z,26.25
2019-03-25T10:55:12.737Z,26.67
2019-03-25T10:57:44.520Z,26.03
2019-03-25T11:00:17.116Z,26.58
2019-03-25T11:02:49.050Z,25.64
2019-03-25T11:05:20.957Z,26.48
2019-03-25T11:07:52.872Z,25.54
2019-03-25T11:10:24.834Z,26.08
2019-03-25T11:12:56.815Z,25.36
2019-03-25T11:15:28.742Z,25.73
2019-03-25T11:18:00.691Z,24.52
2019-03-25T11:20:32.666Z,25.89
2019-03-25T11:23:04.534Z,25.17
2019-03-25T11:25:36.530Z,26.07
2019-03-25T11:28:08.570Z,25.85
2019-03-25T11:30:55.404Z,25.10
2019-03-25T11:33:27.543Z,25.07
2019-03-25T11:35:59.882Z,24.13
2019-03-25T11:38:31.406Z,23.98
2019-03-25T11:41:03.352Z,24.14
2019-03-25T11:43:35.261Z,22.03
2019-03-25T11:46:07.318Z,23.17
2019-03-25T11:48:39.294Z,24.50
2019-03-25T11:51:11.217Z,23.98
2019-03-25T11:53:42.945Z,23.13
2019-03-25T11:56:14.905Z,22.74
2019-03-25T11:58:46.894Z,22.25
2019-03-25T12:01:18.836Z,22.78
2019-03-25T12:03:50.675Z,23.61
2019-03-25T12:06:22.662Z,22.64
2019-03-25T12:08:54.393Z,24.34
2019-03-25T12:11:26.339Z,24.20
2019-03-25T12:13:58.086Z,24.40
2019-03-25T12:16:31.490Z,24.33
2019-03-25T12:19:03.510Z,24.77
2019-03-25T12:21:35.307Z,24.81
2019-03-25T12:24:07.030Z,25.70
2019-03-25T12:26:38.858Z,24.75
2019-03-25T12:29:10.725Z,25.55
2019-03-25T12:31:42.483Z,25.42
2019-03-25T12:34:14.157Z,25.88
2019-03-25T12:36:45.924Z,25.08
2019-03-25T12:39:17.700Z,25.17
2019-03-25T12:41:49.375Z,24.77
2019-03-25T12:44:21.308Z,25.73
2019-03-25T12:46:53.271Z,25.02
2019-03-25T12:49:24.972Z,25.49
2019-03-25T12:51:56.569Z,25.45
2019-03-25T12:54:28.475Z,25.69
2019-03-25T12:57:00.124Z,25.68
2019-03-25T12:59:40.850Z,25.18
2019-03-25T13:02:05.835Z,24.86
2019-03-25T13:04:38.802Z,25.09
2019-03-25T13:07:10.487Z,24.89
2019-03-25T13:09:42.134Z,24.77
2019-03-25T13:12:14.108Z,23.88
2019-03-25T13:14:45.951Z,24.00
2019-03-25T13:17:17.872Z,24.05
2019-03-25T13:19:49.671Z,24.37
2019-03-25T13:22:21.630Z,24.58
2019-03-25T13:24:53.414Z,24.47
2019-03-25T13:27:25.980Z,24.46
2019-03-25T13:29:57.939Z,25.17
2019-03-25T13:32:29.736Z,25.10
2019-03-25T13:35:01.711Z,24.03
2019-03-25T13:37:33.582Z,24.68
2019-03-25T13:40:07.876Z,23.92
2019-03-25T13:42:39.873Z,23.78
2019-03-25T13:45:12.659Z,23.84
2019-03-25T13:47:44.502Z,24.77
2019-03-25T13:50:16.380Z,22.71
2019-03-25T13:52:48.216Z,23.59
2019-03-25T13:55:20.123Z,22.01
2019-03-25T13:57:51.979Z,21.16
2019-03-25T14:00:37.140Z,21.15
2019-03-25T14:03:09.195Z,22.31
2019-03-25T14:05:41.170Z,21.10
2019-03-25T14:08:13.045Z,21.93
2019-03-25T14:10:46.020Z,22.84
2019-03-25T14:13:17.857Z,22.36
2019-03-25T14:15:49.855Z,21.17
2019-03-25T14:18:21.678Z,19.73
2019-03-25T14:20:53.535Z,20.16
2019-03-25T14:23:25.364Z,19.63
2019-03-25T14:25:57.192Z,20.44
2019-03-25T14:28:29.222Z,19.87
2019-03-25T14:31:01.115Z,20.06
2019-03-25T14:33:33.147Z,20.61
2019-03-25T14:36:05.113Z,20.64
2019-03-25T14:38:36.803Z,19.42
2019-03-25T14:41:08.727Z,19.33
2019-03-25T14:43:40.527Z,19.04
2019-03-25T14:46:12.624Z,19.21
2019-03-25T14:48:44.664Z,18.86
2019-03-25T14:51:16.653Z,19.21
2019-03-25T14:53:48.557Z,19.65
2019-03-25T14:56:20.790Z,19.93
2019-03-25T14:58:52.815Z,19.30
2019-03-25T15:01:24.829Z,18.91
2019-03-25T15:03:56.816Z,18.50
2019-03-25T15:06:28.954Z,18.99
2019-03-25T15:09:00.821Z,19.24
2019-03-25T15:11:33.895Z,18.85
2019-03-25T15:14:05.869Z,19.25
2019-03-25T15:16:37.803Z,18.61
2019-03-25T15:19:09.801Z,18.90
2019-03-25T15:21:41.661Z,19.00
2019-03-25T15:24:13.763Z,18.63
2019-03-25T15:26:45.724Z,18.47
2019-03-25T15:29:17.612Z,18.93
2019-03-25T15:31:49.071Z,19.21
2019-03-25T15:34:20.811Z,18.86
2019-03-25T15:36:52.635Z,19.23
2019-03-25T15:39:24.670Z,19.71
2019-03-25T15:41:56.643Z,19.32
2019-03-25T15:44:28.593Z,19.52
2019-03-25T15:47:00.359Z,19.63
2019-03-25T15:49:32.442Z,19.56
2019-03-25T15:52:04.207Z,19.29
2019-03-25T15:54:35.980Z,19.66
2019-03-25T15:57:07.730Z,19.42
2019-03-25T15:59:39.556Z,19.40
2019-03-25T16:02:11.400Z,19.99
2019-03-25T16:04:43.163Z,20.42
2019-03-25T16:07:15.285Z,20.98
2019-03-25T16:09:47.644Z,20.38
2019-03-25T16:12:19.948Z,20.79
2019-03-25T16:14:51.721Z,20.86
2019-03-25T16:17:23.703Z,21.23
2019-03-25T16:19:55.679Z,20.95
2019-03-25T16:22:27.531Z,21.11
2019-03-25T16:24:59.389Z,20.97
2019-03-25T16:27:31.403Z,21.56
2019-03-25T16:30:03.402Z,22.00
2019-03-25T16:32:35.267Z,21.25
2019-03-25T16:35:07.247Z,21.12
2019-03-25T16:37:39.032Z,21.15
2019-03-25T16:40:10.909Z,21.21
2019-03-25T16:42:43.035Z,21.33
2019-03-25T16:45:14.901Z,21.03
2019-03-25T16:47:46.661Z,21.21
2019-03-25T16:50:18.538Z,21.57
2019-03-25T16:52:50.405Z,20.89
2019-03-25T16:55:22.217Z,21.20
2019-03-25T16:57:54.395Z,21.44
2019-03-25T17:00:27.593Z,21.29
2019-03-25T17:02:59.776Z,20.75
2019-03-25T17:05:31.871Z,20.72
2019-03-25T17:08:03.698Z,20.86
2019-03-25T17:10:35.541Z,21.41
2019-03-25T17:13:07.408Z,21.45
2019-03-25T17:15:39.323Z,21.46
2019-03-25T17:18:11.206Z,21.12
2019-03-25T17:20:43.179Z,21.07
2019-03-25T17:23:14.843Z,20.92
2019-03-25T17:25:52.968Z,20.80
2019-03-25T17:28:20.007Z,20.83
2019-03-25T17:30:51.881Z,21.93
2019-03-25T17:33:23.725Z,21.55
2019-03-25T17:35:55.293Z,22.23
2019-03-25T17:38:27.356Z,22.53
2019-03-25T17:40:59.227Z,22.77
2019-03-25T17:43:31.194Z,22.96
2019-03-25T17:46:03.040Z,23.41
2019-03-25T17:48:35.182Z,23.70
2019-03-25T17:51:07.211Z,24.39
2019-03-25T17:53:39.014Z,24.77
2019-03-25T17:56:10.895Z,25.02
2019-03-25T17:58:42.890Z,25.18
2019-03-25T18:01:17.539Z,25.25
2019-03-25T18:03:49.437Z,25.53
2019-03-25T18:06:21.245Z,26.06
2019-03-25T18:08:52.745Z,26.57
2019-03-25T18:11:24.464Z,26.85
2019-03-25T18:13:56.075Z,27.43
2019-03-25T18:16:30.885Z,27.59
2019-03-25T18:19:02.667Z,27.59
2019-03-25T18:21:34.573Z,28.06
2019-03-25T18:24:06.970Z,28.03
2019-03-25T18:26:38.709Z,28.14
2019-03-25T18:29:10.758Z,28.24
2019-03-25T18:31:43.689Z,28.30
2019-03-25T18:34:16.670Z,28.32
2019-03-25T18:36:48.627Z,28.59
2019-03-25T18:39:20.648Z,28.83
2019-03-25T18:41:52.228Z,29.07
2019-03-25T18:44:24.577Z,29.19
2019-03-25T18:46:56.758Z,29.17
2019-03-25T18:49:28.769Z,29.19
2019-03-25T18:52:00.774Z,29.25
2019-03-25T18:54:32.636Z,29.36
2019-03-25T18:57:04.434Z,29.37
2019-03-25T18:59:36.540Z,29.39
2019-03-25T19:02:08.377Z,29.33
2019-03-25T19:04:40.138Z,29.39
2019-03-25T19:07:11.730Z,29.21
2019-03-25T19:09:43.828Z,29.36
2019-03-25T19:12:15.651Z,29.29
2019-03-25T19:14:49.716Z,29.87
2019-03-25T19:17:21.563Z,30.04
2019-03-25T19:19:53.369Z,30.27
2019-03-25T19:22:25.440Z,31.06
2019-03-25T19:24:57.049Z,32.32
2019-03-25T19:27:28.858Z,33.08
2019-03-25T19:30:01.036Z,33.82
2019-03-25T19:32:32.984Z,34.50
2019-03-25T19:35:04.957Z,35.04
2019-03-25T19:37:36.824Z,35.09
2019-03-25T19:40:08.935Z,35.98
2019-03-25T19:42:40.818Z,36.88
2019-03-25T19:45:13.344Z,36.88
2019-03-25T19:47:45.491Z,37.34
2019-03-25T19:50:17.823Z,37.83
2019-03-25T19:52:49.556Z,38.05
2019-03-25T19:55:21.419Z,38.44
2019-03-25T19:57:53.399Z,38.53
2019-03-25T20:00:39.570Z,38.59
2019-03-25T20:03:11.501Z,38.57
2019-03-25T20:05:43.401Z,38.77
2019-03-25T20:08:15.034Z,38.64
2019-03-25T20:10:46.846Z,38.69
2019-03-25T20:13:18.845Z,38.67
2019-03-25T20:15:50.915Z,38.57
2019-03-25T20:18:22.661Z,38.49
2019-03-25T20:20:54.348Z,38.86
2019-03-25T20:23:26.040Z,38.96
2019-03-25T20:25:57.933Z,38.99
2019-03-25T20:28:29.642Z,39.08
2019-03-25T20:31:01.626Z,39.02
2019-03-25T20:33:33.346Z,38.97
2019-03-25T20:36:04.902Z,39.08
2019-03-25T20:38:36.873Z,39.19
2019-03-25T20:41:11.820Z,39.13
2019-03-25T20:43:43.639Z,39.39
2019-03-25T20:46:15.680Z,39.50
2019-03-25T20:48:48.585Z,39.20
2019-03-25T20:51:20.531Z,39.35
2019-03-25T20:53:52.209Z,39.63
2019-03-25T20:56:24.007Z,39.86
2019-03-25T20:58:55.699Z,39.72
2019-03-25T21:01:27.420Z,39.87
2019-03-25T21:03:59.337Z,39.84
2019-03-25T21:06:31.204Z,40.09
2019-03-25T21:09:03.198Z,39.97
2019-03-25T21:11:35.470Z,39.94
2019-03-25T21:14:07.288Z,40.07
2019-03-25T21:16:38.895Z,40.06
2019-03-25T21:19:10.727Z,39.87
2019-03-25T21:21:42.294Z,39.83
2019-03-25T21:24:14.020Z,39.79
2019-03-25T21:26:45.631Z,40.08
2019-03-25T21:29:17.148Z,39.72
2019-03-25T21:31:48.807Z,39.77
2019-03-25T21:34:20.302Z,39.70
2019-03-25T21:36:52.317Z,39.79
2019-03-25T21:39:24.133Z,39.62
2019-03-25T21:41:55.726Z,39.65
2019-03-25T21:44:27.522Z,39.67
2019-03-25T21:46:59.142Z,39.75
2019-03-25T21:49:31.881Z,39.59
2019-03-25T21:52:03.436Z,39.67
2019-03-25T21:54:35.067Z,39.70
2019-03-25T21:57:06.909Z,39.69
2019-03-25T21:59:39.861Z,39.66
2019-03-25T22:02:11.769Z,40.47
2019-03-25T22:04:43.684Z,40.54
2019-03-25T22:07:15.456Z,41.07
2019-03-25T22:09:47.220Z,41.34
2019-03-25T22:12:18.845Z,40.87
2019-03-25T22:14:50.699Z,41.20
2019-03-25T22:17:22.550Z,41.22
2019-03-25T22:19:54.334Z,40.72
2019-03-25T22:22:25.900Z,41.59
2019-03-25T22:24:57.618Z,42.81
2019-03-25T22:27:29.421Z,42.37
2019-03-25T22:30:01.278Z,43.03
2019-03-25T22:32:33.136Z,44.23
2019-03-25T22:35:06.137Z,44.42
2019-03-25T22:37:38.745Z,44.55
2019-03-25T22:40:11.051Z,44.59
2019-03-25T22:42:43.430Z,44.58
2019-03-25T22:45:17.311Z,44.35
2019-03-25T22:47:49.518Z,44.27
2019-03-25T22:50:29.846Z,44.58
2019-03-25T22:53:01.736Z,44.63
2019-03-25T22:55:33.572Z,45.07
2019-03-25T22:58:05.697Z,45.33
2019-03-25T23:00:47.712Z,45.60
2019-03-25T23:03:19.745Z,45.29
2019-03-25T23:05:51.456Z,45.31
2019-03-25T23:08:22.957Z,45.90
2019-03-25T23:10:54.777Z,45.88
2019-03-25T23:13:26.559Z,46.29
2019-03-25T23:15:58.582Z,45.99
2019-03-25T23:18:30.895Z,46.38
2019-03-25T23:21:02.908Z,47.21
2019-03-25T23:23:35.303Z,47.56
2019-03-25T23:26:07.137Z,47.65
2019-03-25T23:28:39.412Z,47.65
2019-03-25T23:31:11.542Z,47.70
2019-03-25T23:33:52.189Z,48.06
2019-03-25T23:36:17.746Z,48.02
2019-03-25T23:38:50.156Z,48.64
2019-03-25T23:41:22.253Z,48.67
2019-03-25T23:43:54.506Z,48.71
2019-03-25T23:46:26.796Z,48.42
2019-03-25T23:48:59.222Z,48.24
2019-03-25T23:51:31.146Z,48.52
2019-03-25T23:54:13.280Z,48.86
2019-03-25T23:56:45.630Z,48.96
2019-03-25T23:59:17.935Z,49.65
